Terminal Aerodrome Forecast
Issued by NWS

Home | Current Version | Previous Version | Text Only | Print | Product List | Glossary On
Versions: 1 2 3 4 5 6 7 8 9 10 11 12 13 14 15 16
782
FTUS43 KEAX 221700
TAFSTJ
TAF
KSTJ 221720Z 2218/2318 21007KT P6SM BKN100
     FM222000 25007KT P6SM VCSH OVC080
     FM222300 13007KT P6SM BKN070
     FM231500 14008KT P6SM VCSH OVC035=

USA.gov is the U.S. government's official web portal to all federal, state and local government web resources and services.